Time;durP1;ratioP1;P1;durP2;ratioP2;P2;SDS_P1;SDS_P2;PMS_P1;PMS_P2;Temp;Humidity;BMP_temperature;BMP_pressure;BME280_temperature;BME280_humidity;BME280_pressure;Samples;Min_cycle;Max_cycle;Signal;HPM_P1;HPM_P2
2023/06/15 03:01:12;;;;;;;16.90;15.90;;;13.90;99.90;;;;;;5481836;23;20239;-81
2023/06/15 03:03:40;;;;;;;26.53;24.80;;;13.90;99.90;;;;;;4900783;29;20196;-80
2023/06/15 03:06:08;;;;;;;20.07;18.97;;;13.90;99.90;;;;;;4913470;29;20183;-80
2023/06/15 03:08:34;;;;;;;19.87;18.43;;;13.90;99.90;;;;;;4911485;29;20288;-80
2023/06/15 03:11:01;;;;;;;17.57;16.30;;;13.90;99.90;;;;;;4912413;29;20230;-80
2023/06/15 03:13:29;;;;;;;17.13;16.00;;;13.90;99.90;;;;;;4926910;23;20246;-79
2023/06/15 03:15:56;;;;;;;16.00;14.93;;;13.80;99.90;;;;;;4913101;29;20239;-78
2023/06/15 03:18:22;;;;;;;11.40;10.70;;;13.80;99.90;;;;;;4900806;29;20199;-78
2023/06/15 03:20:52;;;;;;;12.23;11.43;;;13.80;99.90;;;;;;4908047;29;20207;-77
2023/06/15 03:23:21;;;;;;;12.43;11.37;;;13.70;99.90;;;;;;4903734;29;20302;-78
2023/06/15 03:25:49;;;;;;;17.93;16.70;;;13.70;99.90;;;;;;4903610;29;20253;-78
2023/06/15 03:28:16;;;;;;;56.33;52.93;;;13.70;99.90;;;;;;4900421;29;20637;-78
2023/06/15 03:30:46;;;;;;;87.83;83.20;;;13.70;99.90;;;;;;4900593;29;20188;-78
2023/06/15 03:33:13;;;;;;;152.00;143.70;;;13.60;99.90;;;;;;4899141;29;20279;-78
2023/06/15 03:35:39;;;;;;;161.57;152.90;;;13.50;99.90;;;;;;4898709;29;20207;-79
2023/06/15 03:38:06;;;;;;;184.83;174.93;;;13.50;99.90;;;;;;4897962;29;20287;-78
2023/06/15 03:40:37;;;;;;;154.10;145.60;;;13.50;99.90;;;;;;4897181;29;20739;-78
2023/06/15 03:43:03;;;;;;;171.90;162.77;;;13.40;99.90;;;;;;4897333;29;20678;-78
2023/06/15 03:45:29;;;;;;;196.63;185.53;;;13.50;99.90;;;;;;4898622;29;20208;-78
2023/06/15 03:47:55;;;;;;;159.63;151.30;;;13.40;99.90;;;;;;4901672;29;20290;-78
2023/06/15 03:50:20;;;;;;;166.17;157.43;;;13.40;99.90;;;;;;4900639;29;20687;-78
2023/06/15 03:52:47;;;;;;;153.30;144.90;;;13.40;99.90;;;;;;4901756;29;20568;-78
2023/06/15 03:55:13;;;;;;;157.33;148.67;;;13.40;99.90;;;;;;4905879;29;20448;-78
2023/06/15 03:57:38;;;;;;;157.00;148.47;;;13.40;99.90;;;;;;4908069;29;20195;-78
2023/06/15 04:00:08;;;;;;;136.10;128.73;;;13.40;99.90;;;;;;4900850;29;20191;-79
2023/06/15 04:02:33;;;;;;;86.03;81.07;;;13.50;99.90;;;;;;4901131;29;20196;-79
2023/06/15 04:05:02;;;;;;;85.90;81.37;;;13.40;99.90;;;;;;4901680;29;20305;-78
2023/06/15 04:07:28;;;;;;;43.30;40.90;;;13.30;99.90;;;;;;4894812;29;20205;-78
2023/06/15 04:09:54;;;;;;;47.87;45.30;;;13.30;99.90;;;;;;4893143;29;20214;-78
2023/06/15 04:12:21;;;;;;;26.60;24.97;;;13.40;99.90;;;;;;4900780;29;20226;-79
2023/06/15 04:14:47;;;;;;;166.17;157.27;;;13.50;99.90;;;;;;4900972;29;20318;-78
2023/06/15 04:17:13;;;;;;;225.77;213.47;;;13.60;99.90;;;;;;4901306;29;20222;-78
2023/06/15 04:19:39;;;;;;;257.83;244.03;;;13.70;99.90;;;;;;4903091;29;20199;-78
2023/06/15 04:22:05;;;;;;;80.63;76.37;;;13.80;99.90;;;;;;4901581;29;20250;-78
2023/06/15 04:24:32;;;;;;;16.23;15.03;;;13.90;99.90;;;;;;4906050;29;20264;-78
2023/06/15 04:26:59;;;;;;;10.53;9.73;;;14.00;99.90;;;;;;4908818;29;20291;-78
2023/06/15 04:29:30;;;;;;;14.87;13.63;;;14.10;99.90;;;;;;4905675;29;20195;-78
2023/06/15 04:31:59;;;;;;;21.90;20.50;;;14.20;99.90;;;;;;4901215;29;20215;-79
2023/06/15 04:34:26;;;;;;;55.17;52.27;;;14.30;99.90;;;;;;4901917;29;20279;-77
2023/06/15 04:36:54;;;;;;;70.73;66.80;;;14.40;99.90;;;;;;4900530;29;20691;-79
2023/06/15 04:39:27;;;;;;;93.77;88.97;;;14.40;99.90;;;;;;4902512;29;20601;-79
2023/06/15 04:41:57;;;;;;;113.73;107.73;;;14.50;99.90;;;;;;4893182;29;20204;-79
2023/06/15 04:44:22;;;;;;;110.43;104.63;;;14.60;99.90;;;;;;4902804;29;20270;-79
2023/06/15 04:46:48;;;;;;;45.83;43.43;;;14.70;99.90;;;;;;4903028;29;20199;-79
2023/06/15 04:49:14;;;;;;;23.43;21.73;;;14.80;99.90;;;;;;4902143;29;20213;-78
2023/06/15 04:51:40;;;;;;;18.90;17.60;;;14.90;99.90;;;;;;4902404;29;20215;-79
2023/06/15 04:54:07;;;;;;;22.83;21.47;;;15.10;99.90;;;;;;4901509;29;20284;-78
2023/06/15 04:56:32;;;;;;;32.67;30.63;;;15.20;99.90;;;;;;4902984;29;20235;-78
2023/06/15 04:58:58;;;;;;;21.97;20.57;;;15.40;99.90;;;;;;4907088;29;20195;-77
2023/06/15 05:01:24;;;;;;;20.70;18.90;;;15.60;99.90;;;;;;4905631;29;20223;-77
2023/06/15 05:03:51;;;;;;;21.93;20.63;;;15.80;99.90;;;;;;4897356;29;20220;-77
2023/06/15 05:06:17;;;;;;;16.00;14.83;;;16.10;99.90;;;;;;4900319;29;20203;-78
2023/06/15 05:08:42;;;;;;;14.68;11.27;;;16.50;99.90;;;;;;4904853;29;20191;-79
2023/06/15 05:11:08;;;;;;;16.17;9.00;;;17.10;99.90;;;;;;4900828;29;20305;-78
2023/06/15 05:13:34;;;;;;;9.18;7.20;;;17.70;99.90;;;;;;4899313;29;20256;-77
2023/06/15 05:16:00;;;;;;;15.63;14.68;;;18.40;99.90;;;;;;4891185;29;20203;-78
2023/06/15 05:18:26;;;;;;;112.35;106.80;;;18.90;99.90;;;;;;4898462;29;20191;-77
2023/06/15 05:20:52;;;;;;;34.35;32.30;;;19.50;99.90;;;;;;4900725;29;20207;-78
2023/06/15 05:23:19;;;;;;;14.73;13.60;;;19.80;99.90;;;;;;4899741;29;20203;-78
2023/06/15 05:25:45;;;;;;;8.93;8.13;;;20.30;99.90;;;;;;4898946;29;20539;-78
2023/06/15 05:28:11;;;;;;;9.15;8.45;;;20.50;99.90;;;;;;4898205;29;20707;-80
2023/06/15 05:30:37;;;;;;;11.75;10.95;;;20.90;99.90;;;;;;4897987;29;20282;-78
2023/06/15 05:33:03;;;;;;;7.78;7.05;;;21.10;99.90;;;;;;4899045;29;20180;-78
2023/06/15 05:35:29;;;;;;;17.30;16.25;;;21.40;99.90;;;;;;4901692;29;20215;-79
2023/06/15 05:37:55;;;;;;;19.80;18.52;;;21.60;99.60;;;;;;4907179;29;20247;-79
2023/06/15 05:40:21;;;;;;;12.70;11.80;;;21.70;99.40;;;;;;4902006;29;20187;-79
2023/06/15 05:42:46;;;;;;;8.77;8.05;;;22.10;98.50;;;;;;4909400;29;20199;-78
2023/06/15 05:45:12;;;;;;;8.30;7.70;;;22.40;97.50;;;;;;4904325;29;20223;-79
2023/06/15 05:47:38;;;;;;;7.45;6.95;;;22.70;96.70;;;;;;4902395;29;20188;-79
2023/06/15 05:50:05;;;;;;;8.77;7.85;;;22.80;95.20;;;;;;4901840;29;20191;-79
2023/06/15 05:52:30;;;;;;;9.95;9.18;;;22.70;93.60;;;;;;4900562;29;20215;-79
2023/06/15 05:54:56;;;;;;;13.77;10.43;;;22.70;93.30;;;;;;4907699;29;20227;-79
2023/06/15 05:57:22;;;;;;;11.55;10.57;;;23.00;92.50;;;;;;4901374;29;20274;-79
2023/06/15 05:59:49;;;;;;;9.65;8.98;;;23.30;91.90;;;;;;4901777;29;20222;-79
2023/06/15 06:02:15;;;;;;;9.68;8.70;;;23.50;91.30;;;;;;4901103;29;20192;-79
2023/06/15 06:04:41;;;;;;;12.13;11.38;;;23.30;90.30;;;;;;4900496;29;20267;-79
2023/06/15 06:07:06;;;;;;;12.95;12.13;;;22.90;90.70;;;;;;4900442;29;20193;-78
2023/06/15 06:09:33;;;;;;;11.93;11.02;;;22.70;91.20;;;;;;4905731;29;20196;-79
2023/06/15 06:12:00;;;;;;;16.80;10.85;;;23.00;90.50;;;;;;4907332;29;20215;-80
2023/06/15 06:14:27;;;;;;;10.23;9.52;;;22.80;90.80;;;;;;4885120;29;20275;-80
2023/06/15 06:16:53;;;;;;;10.93;10.30;;;23.00;90.50;;;;;;4901096;29;20541;-80
2023/06/15 06:19:19;;;;;;;10.95;10.18;;;23.20;90.20;;;;;;4900409;29;20279;-80
2023/06/15 06:21:45;;;;;;;10.90;10.10;;;23.40;89.00;;;;;;4893749;29;20223;-79
2023/06/15 06:24:11;;;;;;;11.23;10.52;;;23.60;88.00;;;;;;4900337;29;20247;-79
2023/06/15 06:26:37;;;;;;;10.27;8.98;;;23.50;88.30;;;;;;4899424;29;20192;-79
2023/06/15 06:29:03;;;;;;;10.75;10.00;;;23.60;87.60;;;;;;4908095;29;20195;-77
2023/06/15 06:31:29;;;;;;;11.85;11.20;;;24.10;86.40;;;;;;4905758;29;20216;-78
2023/06/15 06:33:55;;;;;;;13.93;13.07;;;24.60;84.70;;;;;;4901780;29;20246;-78
2023/06/15 06:36:20;;;;;;;17.42;16.02;;;24.80;84.30;;;;;;4903891;29;20191;-77
2023/06/15 06:38:47;;;;;;;15.63;14.68;;;24.90;82.90;;;;;;4903958;29;20191;-77
2023/06/15 06:41:14;;;;;;;14.10;13.02;;;25.00;83.00;;;;;;4902450;29;20198;-79
2023/06/15 06:43:39;;;;;;;10.55;9.82;;;25.40;82.30;;;;;;4902167;29;20696;-78
2023/06/15 06:46:05;;;;;;;7.50;6.80;;;25.80;80.90;;;;;;4902421;29;20198;-78
2023/06/15 06:48:31;;;;;;;9.98;7.15;;;26.00;79.30;;;;;;4902569;29;20195;-79
2023/06/15 06:50:57;;;;;;;7.95;7.45;;;26.30;78.00;;;;;;4901234;29;20223;-78
2023/06/15 06:53:23;;;;;;;8.43;7.72;;;26.50;76.70;;;;;;4900291;29;20198;-78
2023/06/15 06:55:49;;;;;;;9.27;8.40;;;26.40;75.60;;;;;;4892442;29;20183;-79
2023/06/15 06:58:15;;;;;;;11.48;10.73;;;26.30;77.40;;;;;;4901397;29;20188;-79
2023/06/15 07:00:41;;;;;;;17.05;15.95;;;26.80;75.40;;;;;;4900152;29;20195;-78
2023/06/15 07:03:07;;;;;;;20.52;19.08;;;27.00;74.60;;;;;;4901277;29;20652;-78
2023/06/15 07:05:33;;;;;;;21.98;20.35;;;27.00;73.60;;;;;;4899707;29;20263;-79
2023/06/15 07:07:59;;;;;;;23.65;22.25;;;27.00;73.00;;;;;;4902172;29;20212;-78
2023/06/15 07:10:25;;;;;;;28.83;27.17;;;27.00;73.10;;;;;;4896263;29;20198;-79
2023/06/15 07:12:55;;;;;;;23.65;22.42;;;26.90;72.80;;;;;;4903714;29;20223;-78
2023/06/15 07:15:22;;;;;;;23.42;22.10;;;27.10;72.60;;;;;;4904841;29;20223;-78
2023/06/15 07:17:47;;;;;;;11.98;11.23;;;26.70;72.30;;;;;;4903479;29;20195;-79
2023/06/15 07:20:13;;;;;;;7.78;7.28;;;26.10;73.10;;;;;;4903146;29;20191;-79
2023/06/15 07:22:39;;;;;;;8.18;7.68;;;25.80;75.00;;;;;;4898952;29;20198;-79
2023/06/15 07:25:05;;;;;;;10.80;10.20;;;26.00;74.90;;;;;;4909233;29;20219;-78
2023/06/15 07:27:31;;;;;;;13.27;12.27;;;26.40;73.40;;;;;;4907299;29;20214;-79
2023/06/15 07:29:57;;;;;;;22.25;20.90;;;26.80;72.30;;;;;;4907169;29;20195;-78
2023/06/15 07:32:23;;;;;;;25.08;23.65;;;27.10;71.90;;;;;;4908911;29;20215;-79
2023/06/15 07:34:48;;;;;;;34.83;32.88;;;27.60;72.00;;;;;;4906755;29;20222;-80
2023/06/15 07:37:14;;;;;;;31.95;30.15;;;28.20;70.20;;;;;;4906486;29;20183;-80
2023/06/15 07:39:40;;;;;;;28.67;26.83;;;27.90;68.10;;;;;;4905226;29;20365;-80
2023/06/15 07:42:07;;;;;;;15.73;14.88;;;28.00;68.70;;;;;;4906547;29;20706;-79
2023/06/15 07:44:33;;;;;;;24.10;22.67;;;27.70;67.70;;;;;;4908553;29;20731;-79
2023/06/15 07:46:58;;;;;;;18.35;17.05;;;27.90;69.00;;;;;;4921790;29;20586;-79
2023/06/15 07:49:24;;;;;;;7.53;7.03;;;28.30;68.20;;;;;;4920348;29;20202;-79
2023/06/15 07:51:50;;;;;;;13.48;12.50;;;28.00;65.50;;;;;;4899758;29;20652;-79
2023/06/15 07:54:16;;;;;;;14.68;13.88;;;27.20;67.80;;;;;;4905260;29;20219;-79
2023/06/15 07:56:44;;;;;;;21.02;19.75;;;27.30;67.30;;;;;;4903891;29;20239;-79
2023/06/15 07:59:10;;;;;;;13.40;12.38;;;27.50;68.70;;;;;;4903863;29;20230;-79
2023/06/15 08:01:35;;;;;;;8.38;7.75;;;27.70;66.70;;;;;;4897892;29;20206;-79
2023/06/15 08:04:02;;;;;;;17.48;16.20;;;27.80;66.20;;;;;;4896742;29;20216;-80
2023/06/15 08:06:28;;;;;;;28.83;27.13;;;27.00;67.70;;;;;;4902839;29;20695;-80
2023/06/15 08:08:54;;;;;;;29.15;27.33;;;26.60;68.50;;;;;;4911420;29;20195;-80
2023/06/15 08:11:20;;;;;;;28.85;27.10;;;26.80;69.50;;;;;;4913954;29;20219;-80
2023/06/15 08:13:46;;;;;;;25.52;24.15;;;27.00;68.30;;;;;;4908017;29;20287;-81
2023/06/15 08:16:11;;;;;;;17.52;16.52;;;27.60;67.30;;;;;;4907267;29;20187;-81
2023/06/15 08:18:37;;;;;;;15.43;14.43;;;27.90;65.50;;;;;;4908826;29;20691;-81
2023/06/15 08:21:03;;;;;;;7.10;6.50;;;28.30;66.40;;;;;;4906191;29;20223;-79
2023/06/15 08:23:29;;;;;;;5.97;5.57;;;28.60;65.10;;;;;;4906430;29;20204;-79
2023/06/15 08:25:54;;;;;;;5.63;5.22;;;28.20;63.90;;;;;;4905910;29;20196;-79
2023/06/15 08:28:21;;;;;;;5.72;5.32;;;28.20;64.90;;;;;;4905082;29;20200;-80
2023/06/15 08:30:47;;;;;;;5.93;5.53;;;28.40;63.50;;;;;;4920070;29;20192;-80
2023/06/15 08:33:13;;;;;;;4.95;4.65;;;28.50;63.40;;;;;;4906515;29;20575;-79
2023/06/15 08:35:38;;;;;;;5.88;5.47;;;28.90;62.00;;;;;;4906923;29;20219;-79
2023/06/15 08:38:04;;;;;;;5.70;5.30;;;29.00;59.90;;;;;;4904899;29;20195;-79
2023/06/15 08:40:30;;;;;;;5.80;5.40;;;28.90;61.10;;;;;;4903892;29;20675;-80
2023/06/15 08:42:58;;;;;;;5.97;5.57;;;28.50;61.50;;;;;;4900728;29;20199;-79
2023/06/15 08:45:28;;;;;;;6.95;5.68;;;28.50;61.30;;;;;;4897836;29;20726;-81
2023/06/15 08:47:57;;;;;;;5.75;5.25;;;28.30;61.10;;;;;;4901762;29;20204;-79
2023/06/15 08:50:23;;;;;;;5.38;4.97;;;27.90;63.40;;;;;;4902603;29;20552;-79
2023/06/15 08:52:50;;;;;;;8.50;7.80;;;28.10;61.70;;;;;;4907398;29;20223;-80
2023/06/15 08:55:17;;;;;;;19.90;14.05;;;27.40;63.80;;;;;;4910316;29;20216;-79
2023/06/15 08:57:43;;;;;;;16.45;15.55;;;27.50;64.00;;;;;;4906209;29;20259;-80
2023/06/15 09:00:10;;;;;;;12.40;11.63;;;27.60;62.90;;;;;;4907596;29;20215;-80
2023/06/15 09:02:46;;;;;;;6.57;6.13;;;28.20;62.30;;;;;;4905754;29;20199;-79
2023/06/15 09:05:12;;;;;;;5.82;5.35;;;29.20;60.50;;;;;;4906719;29;20313;-80
2023/06/15 09:07:38;;;;;;;5.80;5.40;;;29.70;59.10;;;;;;4905467;29;20696;-80
2023/06/15 09:10:11;;;;;;;5.60;5.10;;;29.70;57.60;;;;;;4904670;29;20199;-79
2023/06/15 09:12:42;;;;;;;5.90;5.38;;;28.80;58.80;;;;;;4904298;29;20223;-79
2023/06/15 09:15:08;;;;;;;5.75;5.35;;;29.30;58.00;;;;;;4913958;23;20287;-81
2023/06/15 09:17:36;;;;;;;7.38;6.35;;;29.80;57.00;;;;;;4898551;29;20316;-81
2023/06/15 09:20:05;;;;;;;6.05;5.57;;;30.10;55.90;;;;;;4898341;29;20196;-79
2023/06/15 09:22:31;;;;;;;5.55;5.15;;;29.40;56.80;;;;;;4900089;29;20203;-78
2023/06/15 09:24:57;;;;;;;8.15;5.20;;;29.40;57.50;;;;;;4900728;29;20230;-79
2023/06/15 09:27:23;;;;;;;8.07;7.68;;;29.90;58.00;;;;;;4901737;29;20324;-80
2023/06/15 09:30:07;;;;;;;13.23;12.52;;;30.50;55.80;;;;;;4898670;29;20191;-79
2023/06/15 09:32:33;;;;;;;7.32;6.93;;;29.80;55.60;;;;;;4890437;29;20657;-79
2023/06/15 09:34:59;;;;;;;5.75;5.22;;;29.00;56.40;;;;;;4897992;29;20213;-79
2023/06/15 09:37:27;;;;;;;6.10;5.60;;;28.00;57.60;;;;;;4897586;29;20274;-79
2023/06/15 09:39:56;;;;;;;5.63;5.10;;;27.60;58.90;;;;;;4897869;29;20192;-80
2023/06/15 09:42:26;;;;;;;4.80;4.40;;;27.30;58.00;;;;;;4914794;29;20192;-78
2023/06/15 09:44:54;;;;;;;5.40;4.90;;;27.30;58.60;;;;;;4895767;29;20679;-78
2023/06/15 09:47:20;;;;;;;5.15;4.75;;;27.70;57.10;;;;;;4900056;29;20191;-82
2023/06/15 09:49:48;;;;;;;5.53;4.95;;;28.00;57.00;;;;;;4899006;29;20250;-79
2023/06/15 09:52:14;;;;;;;5.22;4.82;;;27.90;56.90;;;;;;4899377;29;20251;-79
2023/06/15 09:54:40;;;;;;;5.68;5.18;;;27.90;57.20;;;;;;4914208;29;20211;-79
2023/06/15 09:57:07;;;;;;;6.45;4.35;;;27.80;58.00;;;;;;4898738;29;20656;-79
2023/06/15 09:59:33;;;;;;;5.22;4.80;;;27.50;57.90;;;;;;4901101;29;20219;-78
2023/06/15 10:02:00;;;;;;;6.45;5.85;;;27.00;58.70;;;;;;4896199;29;20192;-80
2023/06/15 10:04:31;;;;;;;13.63;12.77;;;26.40;59.50;;;;;;4896947;29;20211;-79
2023/06/15 10:07:04;;;;;;;20.20;19.10;;;26.00;60.60;;;;;;4895735;29;20292;-79
2023/06/15 10:09:49;;;;;;;28.38;26.25;;;25.90;60.40;;;;;;4898804;29;20668;-79
2023/06/15 10:12:17;;;;;;;29.00;26.77;;;25.70;59.80;;;;;;4899984;29;20219;-79
2023/06/15 10:15:09;;;;;;;21.45;20.02;;;25.60;59.90;;;;;;4899672;29;20227;-80
2023/06/15 10:17:37;;;;;;;18.10;17.13;;;25.60;60.70;;;;;;4897425;29;20241;-80
2023/06/15 10:20:09;;;;;;;17.77;16.58;;;25.70;61.30;;;;;;4897735;29;20270;-80
2023/06/15 10:22:45;;;;;;;21.95;20.30;;;26.00;61.60;;;;;;4899398;29;20214;-79
2023/06/15 10:25:12;;;;;;;18.33;17.08;;;26.10;59.80;;;;;;4899351;29;20326;-80
2023/06/15 10:27:38;;;;;;;20.83;19.35;;;26.10;60.00;;;;;;4899044;29;20198;-79
2023/06/15 10:30:08;;;;;;;20.45;19.42;;;26.40;58.90;;;;;;4889821;29;20200;-79
2023/06/15 10:32:43;;;;;;;10.90;10.23;;;26.80;59.70;;;;;;4895293;29;20224;-80
2023/06/15 10:35:21;;;;;;;8.77;8.27;;;26.80;57.30;;;;;;4896769;29;20725;-80
2023/06/15 10:38:10;;;;;;;6.93;6.35;;;26.80;56.90;;;;;;4896671;29;20331;-80
2023/06/15 10:40:42;;;;;;;6.03;5.53;;;26.90;57.10;;;;;;4904871;29;20195;-80
2023/06/15 10:43:08;;;;;;;5.60;5.10;;;27.20;57.10;;;;;;4898479;29;20207;-79
2023/06/15 10:45:34;;;;;;;4.95;4.60;;;27.80;55.80;;;;;;4897644;29;20211;-79
2023/06/15 10:48:02;;;;;;;5.55;5.22;;;28.70;54.70;;;;;;4896868;29;20191;-80
2023/06/15 10:50:43;;;;;;;19.02;18.02;;;30.00;52.20;;;;;;4897876;29;20210;-79
2023/06/15 10:53:26;;;;;;;28.05;26.50;;;31.50;50.40;;;;;;4898082;29;20228;-79
2023/06/15 10:55:54;;;;;;;10.13;9.52;;;33.20;47.80;;;;;;4896303;29;20238;-80
2023/06/15 10:58:20;;;;;;;21.35;20.02;;;33.20;47.20;;;;;;4897725;29;20247;-80
2023/06/15 11:01:11;;;;;;;26.75;25.45;;;33.80;45.80;;;;;;4896542;29;20547;-79
2023/06/15 11:03:40;;;;;;;20.38;19.27;;;34.20;43.50;;;;;;4897821;29;20291;-79
2023/06/15 11:06:08;;;;;;;20.77;19.73;;;33.60;42.90;;;;;;4897759;29;20193;-79
2023/06/15 11:08:59;;;;;;;21.42;20.33;;;33.60;43.20;;;;;;4896707;29;20239;-80
2023/06/15 11:11:34;;;;;;;22.55;21.48;;;33.00;43.40;;;;;;4898072;29;20707;-80
2023/06/15 11:14:04;;;;;;;19.70;18.60;;;33.70;43.70;;;;;;4896701;29;20753;-80
2023/06/15 11:16:37;;;;;;;5.72;5.35;;;34.30;43.20;;;;;;4898188;29;20238;-80
2023/06/15 11:19:12;;;;;;;5.63;5.10;;;35.00;41.20;;;;;;4897305;29;20277;-80
2023/06/15 11:21:40;;;;;;;5.22;4.57;;;35.00;43.00;;;;;;4913287;29;20238;-80
2023/06/15 11:24:07;;;;;;;4.68;4.28;;;34.80;42.40;;;;;;4896928;29;20262;-80
2023/06/15 11:26:34;;;;;;;5.57;5.07;;;34.90;40.90;;;;;;4897258;29;20196;-80
2023/06/15 11:29:03;;;;;;;6.20;5.03;;;34.90;42.50;;;;;;4898229;29;20695;-80
2023/06/15 11:31:31;;;;;;;5.90;4.78;;;35.10;41.80;;;;;;4890810;29;20252;-80
2023/06/15 11:33:57;;;;;;;4.00;3.70;;;34.60;41.00;;;;;;4898091;29;20207;-79
2023/06/15 11:36:23;;;;;;;4.47;4.07;;;33.70;42.50;;;;;;4896909;29;20675;-80
2023/06/15 11:38:49;;;;;;;5.20;4.88;;;33.70;42.00;;;;;;4897302;29;20198;-80
2023/06/15 11:41:15;;;;;;;4.60;4.32;;;33.70;42.70;;;;;;4898870;29;20198;-80
2023/06/15 11:43:48;;;;;;;5.72;4.70;;;34.20;40.50;;;;;;4897975;29;20270;-80
2023/06/15 11:46:20;;;;;;;5.28;4.88;;;34.20;41.50;;;;;;4899781;29;20657;-79
2023/06/15 11:48:47;;;;;;;4.10;3.80;;;34.70;39.70;;;;;;4894350;29;20196;-79
2023/06/15 11:51:15;;;;;;;4.30;4.10;;;34.50;39.30;;;;;;4889967;29;20663;-79
2023/06/15 11:53:42;;;;;;;4.20;3.85;;;33.90;39.70;;;;;;4892594;29;20278;-79
2023/06/15 11:56:13;;;;;;;3.97;3.67;;;34.10;40.30;;;;;;4895967;29;20191;-79
2023/06/15 11:58:40;;;;;;;4.95;3.65;;;34.30;39.70;;;;;;4894789;29;20290;-79
2023/06/15 12:01:06;;;;;;;3.88;3.58;;;34.30;40.00;;;;;;4896201;29;20219;-80
2023/06/15 12:03:36;;;;;;;5.05;4.65;;;35.20;39.30;;;;;;4898128;29;20233;-80
2023/06/15 12:06:01;;;;;;;5.38;4.65;;;35.10;38.40;;;;;;4899336;29;20569;-80
2023/06/15 12:08:28;;;;;;;4.70;4.10;;;34.70;38.80;;;;;;4900857;29;20192;-80
2023/06/15 12:10:55;;;;;;;4.05;3.75;;;33.70;39.30;;;;;;4900380;29;20192;-80
2023/06/15 12:13:23;;;;;;;4.35;4.05;;;33.60;40.40;;;;;;4902113;29;20672;-80
2023/06/15 12:15:50;;;;;;;5.68;5.00;;;34.00;39.50;;;;;;4899984;29;20224;-80
2023/06/15 12:18:17;;;;;;;5.35;5.03;;;33.80;38.40;;;;;;4899222;29;20199;-80
2023/06/15 12:20:44;;;;;;;5.20;4.10;;;32.80;38.60;;;;;;4900880;29;20243;-80
2023/06/15 12:23:10;;;;;;;5.25;4.95;;;32.30;40.30;;;;;;4899818;29;20742;-80
2023/06/15 12:25:44;;;;;;;8.43;7.95;;;32.00;40.70;;;;;;4900607;29;20299;-80
2023/06/15 12:28:18;;;;;;;12.02;10.93;;;31.90;40.70;;;;;;4900124;29;20230;-80
2023/06/15 12:30:47;;;;;;;18.92;17.50;;;31.50;42.50;;;;;;4901867;29;20553;-79
2023/06/15 12:33:29;;;;;;;25.45;24.17;;;30.60;42.70;;;;;;4904028;29;20715;-80
2023/06/15 12:35:56;;;;;;;38.03;36.10;;;29.90;44.00;;;;;;4897889;29;20216;-80
2023/06/15 12:38:24;;;;;;;29.73;27.70;;;29.40;44.90;;;;;;4894240;29;20203;-80
2023/06/15 12:40:52;;;;;;;20.58;19.48;;;29.20;45.20;;;;;;4898897;29;20188;-80
2023/06/15 12:43:19;;;;;;;16.80;15.82;;;29.20;45.70;;;;;;4899668;29;20196;-80
2023/06/15 12:45:46;;;;;;;18.60;17.17;;;29.30;45.60;;;;;;4899076;29;20755;-80
2023/06/15 12:48:12;;;;;;;27.77;25.23;;;29.40;45.60;;;;;;4894069;29;20194;-80
2023/06/15 12:50:38;;;;;;;23.40;21.60;;;29.30;45.70;;;;;;4895878;29;20247;-79
2023/06/15 12:53:04;;;;;;;17.35;16.08;;;29.40;45.60;;;;;;4899380;29;20754;-79
2023/06/15 12:55:30;;;;;;;18.17;17.02;;;29.90;45.90;;;;;;4891053;29;20303;-80
2023/06/15 12:57:57;;;;;;;20.23;19.02;;;30.00;45.10;;;;;;4898835;29;20245;-80
2023/06/15 13:00:27;;;;;;;16.10;14.93;;;29.80;44.40;;;;;;4900261;29;20282;-80
2023/06/15 13:02:54;;;;;;;12.68;11.98;;;29.20;45.10;;;;;;4900263;29;20262;-80
2023/06/15 13:05:20;;;;;;;17.55;16.45;;;29.10;44.40;;;;;;4899885;29;20215;-79
2023/06/15 13:07:46;;;;;;;25.50;24.27;;;28.50;45.50;;;;;;4899071;29;20548;-79
2023/06/15 13:10:13;;;;;;;22.75;21.55;;;28.10;45.60;;;;;;4900753;29;20192;-80
2023/06/15 13:12:39;;;;;;;22.60;21.27;;;28.90;45.40;;;;;;4898957;29;20221;-80
2023/06/15 13:15:06;;;;;;;19.58;18.55;;;30.20;44.90;;;;;;4900476;29;20230;-79
2023/06/15 13:17:36;;;;;;;32.65;30.88;;;31.20;41.80;;;;;;4898041;29;20188;-80
2023/06/15 13:20:04;;;;;;;11.02;10.43;;;32.10;41.70;;;;;;4898412;29;20230;-80
2023/06/15 13:22:30;;;;;;;6.38;4.88;;;33.90;38.90;;;;;;4899784;29;20251;-80
2023/06/15 13:24:57;;;;;;;3.60;3.40;;;35.70;37.80;;;;;;4899048;29;20725;-80
2023/06/15 13:27:23;;;;;;;4.63;4.32;;;36.10;36.30;;;;;;4898795;29;20218;-79
2023/06/15 13:29:50;;;;;;;6.18;5.85;;;35.90;37.20;;;;;;4899251;29;20200;-80
2023/06/15 13:32:16;;;;;;;9.63;8.90;;;36.60;35.60;;;;;;4903266;29;20215;-79
2023/06/15 13:34:42;;;;;;;12.93;11.95;;;37.00;35.20;;;;;;4891561;29;20602;-80
2023/06/15 13:37:08;;;;;;;15.68;14.70;;;36.90;36.20;;;;;;4898273;29;20191;-80
2023/06/15 13:39:38;;;;;;;10.65;10.15;;;36.80;35.80;;;;;;4899447;29;20202;-79
2023/06/15 13:42:07;;;;;;;5.28;4.85;;;35.00;37.40;;;;;;4899207;29;20188;-78
2023/06/15 13:44:33;;;;;;;5.00;4.70;;;33.20;39.40;;;;;;4900666;29;20224;-79
2023/06/15 13:46:59;;;;;;;5.28;4.78;;;32.30;41.20;;;;;;4901965;29;20282;-80
2023/06/15 13:49:25;;;;;;;9.40;8.80;;;32.00;41.60;;;;;;4898257;29;20230;-80
2023/06/15 13:51:50;;;;;;;11.90;11.23;;;31.80;42.30;;;;;;4898077;29;20216;-80
2023/06/15 13:54:16;;;;;;;21.23;19.92;;;31.50;42.50;;;;;;4892443;29;20689;-80
2023/06/15 13:56:42;;;;;;;23.17;21.98;;;31.10;42.80;;;;;;4901014;29;20184;-80
2023/06/15 13:59:08;;;;;;;14.15;13.25;;;32.00;42.70;;;;;;4897386;29;20198;-80
2023/06/15 14:01:34;;;;;;;11.05;10.35;;;32.80;40.80;;;;;;4897781;29;20203;-79
2023/06/15 14:04:00;;;;;;;5.30;4.78;;;33.60;39.90;;;;;;4898119;29;20227;-80
2023/06/15 14:06:26;;;;;;;5.18;4.68;;;33.60;38.70;;;;;;4913702;29;20223;-80
2023/06/15 14:08:52;;;;;;;5.10;4.80;;;33.40;38.70;;;;;;4898184;29;20263;-80
2023/06/15 14:11:18;;;;;;;5.20;4.72;;;33.10;38.90;;;;;;4899030;29;20216;-80
2023/06/15 14:13:50;;;;;;;5.35;5.05;;;33.50;40.00;;;;;;4897634;29;20258;-79
2023/06/15 14:16:19;;;;;;;6.63;6.18;;;34.90;37.40;;;;;;4901766;29;20597;-79
2023/06/15 14:18:47;;;;;;;9.27;8.75;;;35.80;36.40;;;;;;4899560;29;20183;-80
2023/06/15 14:21:13;;;;;;;11.40;10.70;;;37.10;36.20;;;;;;4898372;29;20339;-80
2023/06/15 14:23:39;;;;;;;11.07;10.55;;;37.80;35.50;;;;;;4898489;29;20224;-79
2023/06/15 14:26:05;;;;;;;13.27;12.38;;;37.60;33.90;;;;;;4899380;29;20195;-79
2023/06/15 14:28:32;;;;;;;10.80;10.23;;;37.00;34.90;;;;;;4899876;29;20259;-80
2023/06/15 14:30:58;;;;;;;11.00;10.40;;;36.90;34.60;;;;;;4899947;29;20380;-80
2023/06/15 14:33:24;;;;;;;12.07;11.48;;;35.20;36.10;;;;;;4899179;29;20207;-80
2023/06/15 14:35:50;;;;;;;9.30;8.80;;;33.80;37.40;;;;;;4897953;29;20211;-80
2023/06/15 14:38:16;;;;;;;7.40;7.00;;;32.60;38.80;;;;;;4900597;29;20210;-79
2023/06/15 14:40:42;;;;;;;4.13;3.83;;;32.10;38.90;;;;;;4900123;29;20631;-80
2023/06/15 14:43:07;;;;;;;6.90;6.40;;;32.90;38.40;;;;;;4899973;29;20198;-79
2023/06/15 14:45:33;;;;;;;5.78;5.43;;;34.30;38.20;;;;;;4898341;29;20243;-80
2023/06/15 14:47:59;;;;;;;5.45;5.20;;;35.00;36.20;;;;;;4897982;29;20228;-80
2023/06/15 14:50:25;;;;;;;7.35;6.70;;;34.90;36.00;;;;;;4891870;29;20211;-81
2023/06/15 14:52:50;;;;;;;6.50;6.18;;;34.90;36.60;;;;;;4897354;29;20306;-81
2023/06/15 14:55:16;;;;;;;12.18;11.38;;;35.60;35.60;;;;;;4908305;29;20318;-81
2023/06/15 14:57:42;;;;;;;10.30;9.80;;;36.70;35.80;;;;;;4895727;29;20180;-81
2023/06/15 15:00:09;;;;;;;10.15;9.57;;;37.40;34.40;;;;;;4896437;29;20196;-81
2023/06/15 15:02:35;;;;;;;16.02;15.20;;;37.10;33.70;;;;;;4896087;29;20572;-81
2023/06/15 15:05:02;;;;;;;11.02;10.35;;;37.70;33.70;;;;;;4898782;29;20227;-81
2023/06/15 15:07:28;;;;;;;8.85;7.88;;;38.50;32.80;;;;;;4891304;29;20219;-81
2023/06/15 15:09:54;;;;;;;6.82;6.22;;;37.70;32.30;;;;;;4896802;29;20223;-81
2023/06/15 15:12:20;;;;;;;9.00;8.48;;;36.00;34.00;;;;;;4897467;29;20628;-80
2023/06/15 15:14:46;;;;;;;16.05;14.90;;;34.10;34.90;;;;;;4919164;23;20243;-79
2023/06/15 15:17:13;;;;;;;10.18;9.55;;;31.90;37.90;;;;;;4885158;29;20216;-79
2023/06/15 15:19:38;;;;;;;4.75;4.55;;;30.80;39.80;;;;;;4886509;29;20196;-78
2023/06/15 15:22:05;;;;;;;5.70;5.20;;;31.00;39.70;;;;;;4882501;29;20707;-79
2023/06/15 15:24:31;;;;;;;4.82;4.63;;;31.30;38.90;;;;;;4891105;29;20240;-79
2023/06/15 15:26:57;;;;;;;4.65;4.35;;;32.30;38.60;;;;;;4877531;29;20184;-79
2023/06/15 15:29:23;;;;;;;5.30;5.00;;;32.90;37.20;;;;;;4871019;29;20220;-80
2023/06/15 15:31:48;;;;;;;5.55;5.25;;;33.00;37.30;;;;;;4883058;29;20192;-81
2023/06/15 15:34:14;;;;;;;5.72;5.32;;;33.30;36.70;;;;;;4883267;29;20683;-80